sensor_id;sensor_type;location;lat;lon;timestamp;temperature;humidity
41060;DHT22;26811;53.160;8.202;2023-05-20T00:02:56;13.40;99.90
41060;DHT22;26811;53.160;8.202;2023-05-20T00:07:56;13.40;99.90
41060;DHT22;26811;53.160;8.202;2023-05-20T00:12:57;13.40;99.90
41060;DHT22;26811;53.160;8.202;2023-05-20T00:17:59;13.40;99.90
41060;DHT22;26811;53.160;8.202;2023-05-20T00:23:00;13.40;99.90
41060;DHT22;26811;53.160;8.202;2023-05-20T00:28:01;13.40;99.90
41060;DHT22;26811;53.160;8.202;2023-05-20T00:33:01;13.40;99.90
41060;DHT22;26811;53.160;8.202;2023-05-20T00:38:02;13.40;99.90
41060;DHT22;26811;53.160;8.202;2023-05-20T00:43:02;13.40;99.90
41060;DHT22;26811;53.160;8.202;2023-05-20T00:48:04;13.30;99.90
41060;DHT22;26811;53.160;8.202;2023-05-20T00:53:05;13.20;99.90
41060;DHT22;26811;53.160;8.202;2023-05-20T00:58:06;13.20;99.90
41060;DHT22;26811;53.160;8.202;2023-05-20T01:03:07;13.20;99.90
41060;DHT22;26811;53.160;8.202;2023-05-20T01:08:07;13.20;99.90
41060;DHT22;26811;53.160;8.202;2023-05-20T01:13:10;13.10;99.90
41060;DHT22;26811;53.160;8.202;2023-05-20T01:18:12;13.10;99.90
41060;DHT22;26811;53.160;8.202;2023-05-20T01:23:17;13.10;99.90
41060;DHT22;26811;53.160;8.202;2023-05-20T01:28:18;13.00;99.90
41060;DHT22;26811;53.160;8.202;2023-05-20T01:33:19;12.90;99.90
41060;DHT22;26811;53.160;8.202;2023-05-20T01:38:23;12.80;99.90
41060;DHT22;26811;53.160;8.202;2023-05-20T01:43:25;12.70;99.90
41060;DHT22;26811;53.160;8.202;2023-05-20T01:48:26;12.60;99.90
41060;DHT22;26811;53.160;8.202;2023-05-20T01:53:26;12.50;99.90
41060;DHT22;26811;53.160;8.202;2023-05-20T01:58:27;12.50;99.90
41060;DHT22;26811;53.160;8.202;2023-05-20T02:03:28;12.40;99.90
41060;DHT22;26811;53.160;8.202;2023-05-20T02:08:28;12.30;99.90
41060;DHT22;26811;53.160;8.202;2023-05-20T02:13:29;12.20;99.90
41060;DHT22;26811;53.160;8.202;2023-05-20T02:18:29;12.10;99.90
41060;DHT22;26811;53.160;8.202;2023-05-20T02:23:31;12.10;99.90
41060;DHT22;26811;53.160;8.202;2023-05-20T02:28:32;12.00;99.90
41060;DHT22;26811;53.160;8.202;2023-05-20T02:33:33;11.90;99.90
41060;DHT22;26811;53.160;8.202;2023-05-20T02:38:34;11.80;99.90
41060;DHT22;26811;53.160;8.202;2023-05-20T02:43:34;11.80;99.90
41060;DHT22;26811;53.160;8.202;2023-05-20T02:48:35;11.80;99.90
41060;DHT22;26811;53.160;8.202;2023-05-20T02:53:36;11.70;99.90
41060;DHT22;26811;53.160;8.202;2023-05-20T02:58:36;11.70;99.90
41060;DHT22;26811;53.160;8.202;2023-05-20T03:03:37;11.80;99.90
41060;DHT22;26811;53.160;8.202;2023-05-20T03:08:39;11.70;99.90
41060;DHT22;26811;53.160;8.202;2023-05-20T03:13:41;11.70;99.90
41060;DHT22;26811;53.160;8.202;2023-05-20T03:18:42;11.60;99.90
41060;DHT22;26811;53.160;8.202;2023-05-20T03:23:43;11.60;99.90
41060;DHT22;26811;53.160;8.202;2023-05-20T03:28:43;11.60;99.90
41060;DHT22;26811;53.160;8.202;2023-05-20T03:33:44;11.50;99.90
41060;DHT22;26811;53.160;8.202;2023-05-20T03:38:45;11.50;99.90
41060;DHT22;26811;53.160;8.202;2023-05-20T03:43:46;11.50;99.90
41060;DHT22;26811;53.160;8.202;2023-05-20T03:48:46;11.50;99.90
41060;DHT22;26811;53.160;8.202;2023-05-20T03:53:47;11.50;99.90
41060;DHT22;26811;53.160;8.202;2023-05-20T03:58:47;11.40;99.90
41060;DHT22;26811;53.160;8.202;2023-05-20T04:03:48;11.50;99.90
41060;DHT22;26811;53.160;8.202;2023-05-20T04:08:49;11.50;99.90
41060;DHT22;26811;53.160;8.202;2023-05-20T04:13:49;11.50;99.90
41060;DHT22;26811;53.160;8.202;2023-05-20T04:18:50;11.40;99.90
41060;DHT22;26811;53.160;8.202;2023-05-20T04:23:51;11.40;99.90
41060;DHT22;26811;53.160;8.202;2023-05-20T04:28:52;11.40;99.90
41060;DHT22;26811;53.160;8.202;2023-05-20T04:33:53;11.50;99.90
41060;DHT22;26811;53.160;8.202;2023-05-20T04:38:54;11.60;99.90
41060;DHT22;26811;53.160;8.202;2023-05-20T04:43:55;11.90;99.90
41060;DHT22;26811;53.160;8.202;2023-05-20T04:48:59;12.20;99.90
41060;DHT22;26811;53.160;8.202;2023-05-20T04:54:00;12.30;99.90
41060;DHT22;26811;53.160;8.202;2023-05-20T04:59:02;12.50;99.90
41060;DHT22;26811;53.160;8.202;2023-05-20T05:04:03;12.60;99.90
41060;DHT22;26811;53.160;8.202;2023-05-20T05:09:04;12.70;99.90
41060;DHT22;26811;53.160;8.202;2023-05-20T05:14:05;12.90;99.90
41060;DHT22;26811;53.160;8.202;2023-05-20T05:19:05;13.10;99.90
41060;DHT22;26811;53.160;8.202;2023-05-20T05:24:06;13.00;99.90
41060;DHT22;26811;53.160;8.202;2023-05-20T05:29:08;13.00;99.90
41060;DHT22;26811;53.160;8.202;2023-05-20T05:34:08;13.00;99.90
41060;DHT22;26811;53.160;8.202;2023-05-20T05:39:09;12.90;99.90
41060;DHT22;26811;53.160;8.202;2023-05-20T05:44:09;13.00;99.90
41060;DHT22;26811;53.160;8.202;2023-05-20T05:49:10;13.40;99.90
41060;DHT22;26811;53.160;8.202;2023-05-20T05:54:10;13.80;99.90
41060;DHT22;26811;53.160;8.202;2023-05-20T05:59:11;14.10;99.90
41060;DHT22;26811;53.160;8.202;2023-05-20T06:04:11;14.00;99.90
41060;DHT22;26811;53.160;8.202;2023-05-20T06:09:12;14.00;99.90
41060;DHT22;26811;53.160;8.202;2023-05-20T06:14:12;13.90;99.90
41060;DHT22;26811;53.160;8.202;2023-05-20T06:19:13;14.20;99.90
41060;DHT22;26811;53.160;8.202;2023-05-20T06:24:13;14.40;99.90
41060;DHT22;26811;53.160;8.202;2023-05-20T06:29:14;14.50;99.90
41060;DHT22;26811;53.160;8.202;2023-05-20T06:34:14;14.80;99.90
41060;DHT22;26811;53.160;8.202;2023-05-20T06:39:15;14.90;99.90
41060;DHT22;26811;53.160;8.202;2023-05-20T06:44:16;14.90;99.90
41060;DHT22;26811;53.160;8.202;2023-05-20T06:49:16;15.10;99.90
41060;DHT22;26811;53.160;8.202;2023-05-20T06:54:17;15.40;99.90
41060;DHT22;26811;53.160;8.202;2023-05-20T06:59:17;15.80;99.90
41060;DHT22;26811;53.160;8.202;2023-05-20T07:04:18;16.30;99.90
41060;DHT22;26811;53.160;8.202;2023-05-20T07:09:18;17.00;99.90
41060;DHT22;26811;53.160;8.202;2023-05-20T07:14:19;17.70;97.80
41060;DHT22;26811;53.160;8.202;2023-05-20T07:19:19;18.50;99.40
41060;DHT22;26811;53.160;8.202;2023-05-20T07:24:20;19.50;97.60
41060;DHT22;26811;53.160;8.202;2023-05-20T07:29:20;19.80;94.80
41060;DHT22;26811;53.160;8.202;2023-05-20T07:34:21;19.90;97.20
41060;DHT22;26811;53.160;8.202;2023-05-20T07:39:22;20.30;94.50
41060;DHT22;26811;53.160;8.202;2023-05-20T07:44:23;20.30;95.20
41060;DHT22;26811;53.160;8.202;2023-05-20T07:49:23;20.60;95.00
41060;DHT22;26811;53.160;8.202;2023-05-20T07:54:24;20.50;95.00
41060;DHT22;26811;53.160;8.202;2023-05-20T07:59:25;20.80;96.10
41060;DHT22;26811;53.160;8.202;2023-05-20T08:04:25;21.30;94.80
41060;DHT22;26811;53.160;8.202;2023-05-20T08:09:26;21.70;93.90
41060;DHT22;26811;53.160;8.202;2023-05-20T08:14:26;21.30;93.70
41060;DHT22;26811;53.160;8.202;2023-05-20T08:19:27;21.20;95.20
41060;DHT22;26811;53.160;8.202;2023-05-20T08:24:28;21.20;93.80
41060;DHT22;26811;53.160;8.202;2023-05-20T08:29:28;21.40;96.20
41060;DHT22;26811;53.160;8.202;2023-05-20T08:34:29;22.00;95.20
41060;DHT22;26811;53.160;8.202;2023-05-20T08:39:29;22.50;94.50
41060;DHT22;26811;53.160;8.202;2023-05-20T08:44:30;22.80;92.90
41060;DHT22;26811;53.160;8.202;2023-05-20T08:49:31;22.40;91.90
41060;DHT22;26811;53.160;8.202;2023-05-20T08:54:47;22.30;90.50
41060;DHT22;26811;53.160;8.202;2023-05-20T08:59:47;22.20;91.80
41060;DHT22;26811;53.160;8.202;2023-05-20T09:04:48;22.60;93.90
41060;DHT22;26811;53.160;8.202;2023-05-20T09:09:48;22.70;91.10
41060;DHT22;26811;53.160;8.202;2023-05-20T09:14:49;22.70;91.50
41060;DHT22;26811;53.160;8.202;2023-05-20T09:19:50;22.90;91.50
41060;DHT22;26811;53.160;8.202;2023-05-20T09:24:52;22.40;89.60
41060;DHT22;26811;53.160;8.202;2023-05-20T09:29:53;21.80;89.90
41060;DHT22;26811;53.160;8.202;2023-05-20T09:34:53;21.30;91.50
41060;DHT22;26811;53.160;8.202;2023-05-20T09:39:55;21.30;90.50
41060;DHT22;26811;53.160;8.202;2023-05-20T09:45:00;21.50;89.60
41060;DHT22;26811;53.160;8.202;2023-05-20T09:50:02;21.00;89.50
41060;DHT22;26811;53.160;8.202;2023-05-20T09:55:02;20.50;91.10
41060;DHT22;26811;53.160;8.202;2023-05-20T10:00:07;21.10;90.90
41060;DHT22;26811;53.160;8.202;2023-05-20T10:05:17;21.60;88.40
41060;DHT22;26811;53.160;8.202;2023-05-20T10:10:32;22.00;92.40
41060;DHT22;26811;53.160;8.202;2023-05-20T10:21:17;22.10;85.20
41060;DHT22;26811;53.160;8.202;2023-05-20T10:26:18;22.00;83.70
41060;DHT22;26811;53.160;8.202;2023-05-20T10:31:22;21.60;83.50
41060;DHT22;26811;53.160;8.202;2023-05-20T10:36:25;21.30;85.30
41060;DHT22;26811;53.160;8.202;2023-05-20T10:41:28;20.90;86.00
41060;DHT22;26811;53.160;8.202;2023-05-20T10:46:29;20.60;86.10
41060;DHT22;26811;53.160;8.202;2023-05-20T10:51:30;20.40;87.80
41060;DHT22;26811;53.160;8.202;2023-05-20T10:56:32;20.40;88.80
41060;DHT22;26811;53.160;8.202;2023-05-20T11:01:32;21.10;86.00
41060;DHT22;26811;53.160;8.202;2023-05-20T11:06:33;21.60;88.90
41060;DHT22;26811;53.160;8.202;2023-05-20T11:11:33;21.90;85.30
41060;DHT22;26811;53.160;8.202;2023-05-20T11:16:34;21.50;84.90
41060;DHT22;26811;53.160;8.202;2023-05-20T11:21:42;21.40;85.70
41060;DHT22;26811;53.160;8.202;2023-05-20T11:26:43;21.60;85.60
41060;DHT22;26811;53.160;8.202;2023-05-20T11:31:44;21.90;83.30
41060;DHT22;26811;53.160;8.202;2023-05-20T11:36:47;21.80;89.00
41060;DHT22;26811;53.160;8.202;2023-05-20T11:41:49;21.90;86.10
41060;DHT22;26811;53.160;8.202;2023-05-20T11:46:50;21.50;87.10
41060;DHT22;26811;53.160;8.202;2023-05-20T11:51:51;21.20;86.40
41060;DHT22;26811;53.160;8.202;2023-05-20T11:56:53;21.00;87.10
41060;DHT22;26811;53.160;8.202;2023-05-20T12:01:53;20.70;89.40
41060;DHT22;26811;53.160;8.202;2023-05-20T12:06:54;20.50;87.10
41060;DHT22;26811;53.160;8.202;2023-05-20T12:11:55;20.10;89.90
41060;DHT22;26811;53.160;8.202;2023-05-20T12:16:56;20.30;90.90
41060;DHT22;26811;53.160;8.202;2023-05-20T12:21:56;20.30;88.00
41060;DHT22;26811;53.160;8.202;2023-05-20T12:26:57;19.90;89.60
41060;DHT22;26811;53.160;8.202;2023-05-20T12:31:57;20.00;90.50
41060;DHT22;26811;53.160;8.202;2023-05-20T12:36:58;20.20;89.70
41060;DHT22;26811;53.160;8.202;2023-05-20T12:41:58;19.90;90.60
41060;DHT22;26811;53.160;8.202;2023-05-20T12:46:59;19.40;90.50
41060;DHT22;26811;53.160;8.202;2023-05-20T12:51:59;19.10;91.40
41060;DHT22;26811;53.160;8.202;2023-05-20T12:57:00;19.00;92.10
41060;DHT22;26811;53.160;8.202;2023-05-20T13:02:00;19.30;92.60
41060;DHT22;26811;53.160;8.202;2023-05-20T13:07:02;19.40;91.40
41060;DHT22;26811;53.160;8.202;2023-05-20T13:12:03;19.50;91.80
41060;DHT22;26811;53.160;8.202;2023-05-20T13:17:06;19.30;91.70
41060;DHT22;26811;53.160;8.202;2023-05-20T13:22:06;19.20;92.20
41060;DHT22;26811;53.160;8.202;2023-05-20T13:27:08;19.40;92.70
41060;DHT22;26811;53.160;8.202;2023-05-20T13:32:11;19.40;91.80
41060;DHT22;26811;53.160;8.202;2023-05-20T13:37:12;19.20;92.20
41060;DHT22;26811;53.160;8.202;2023-05-20T13:42:12;19.00;92.90
41060;DHT22;26811;53.160;8.202;2023-05-20T13:47:18;19.10;93.30
41060;DHT22;26811;53.160;8.202;2023-05-20T13:52:24;19.10;92.80
41060;DHT22;26811;53.160;8.202;2023-05-20T13:57:24;19.00;92.40
41060;DHT22;26811;53.160;8.202;2023-05-20T14:02:25;19.00;92.10
41060;DHT22;26811;53.160;8.202;2023-05-20T14:07:26;19.20;91.90
41060;DHT22;26811;53.160;8.202;2023-05-20T14:12:26;19.10;92.00
41060;DHT22;26811;53.160;8.202;2023-05-20T14:17:27;19.30;93.50
41060;DHT22;26811;53.160;8.202;2023-05-20T14:22:27;19.30;92.00
41060;DHT22;26811;53.160;8.202;2023-05-20T14:27:29;19.40;92.60
41060;DHT22;26811;53.160;8.202;2023-05-20T14:32:29;19.50;92.10
41060;DHT22;26811;53.160;8.202;2023-05-20T14:37:30;19.60;92.80
41060;DHT22;26811;53.160;8.202;2023-05-20T14:42:30;19.70;92.10
41060;DHT22;26811;53.160;8.202;2023-05-20T14:47:32;19.10;92.20
41060;DHT22;26811;53.160;8.202;2023-05-20T14:52:33;19.10;93.20
41060;DHT22;26811;53.160;8.202;2023-05-20T14:57:33;19.20;93.10
41060;DHT22;26811;53.160;8.202;2023-05-20T15:02:34;19.20;94.10
41060;DHT22;26811;53.160;8.202;2023-05-20T15:07:34;19.30;92.90
41060;DHT22;26811;53.160;8.202;2023-05-20T15:12:35;19.00;93.70
41060;DHT22;26811;53.160;8.202;2023-05-20T15:17:35;19.00;93.50
41060;DHT22;26811;53.160;8.202;2023-05-20T15:22:36;18.90;93.30
41060;DHT22;26811;53.160;8.202;2023-05-20T15:27:36;18.90;94.00
41060;DHT22;26811;53.160;8.202;2023-05-20T15:32:37;19.00;94.30
41060;DHT22;26811;53.160;8.202;2023-05-20T15:37:39;19.00;94.00
41060;DHT22;26811;53.160;8.202;2023-05-20T15:42:39;18.90;94.60
41060;DHT22;26811;53.160;8.202;2023-05-20T15:47:40;18.90;94.40
41060;DHT22;26811;53.160;8.202;2023-05-20T15:52:42;19.00;95.40
41060;DHT22;26811;53.160;8.202;2023-05-20T15:57:43;19.30;94.40
41060;DHT22;26811;53.160;8.202;2023-05-20T16:02:43;19.00;94.20
41060;DHT22;26811;53.160;8.202;2023-05-20T16:07:45;18.70;95.40
41060;DHT22;26811;53.160;8.202;2023-05-20T16:12:46;18.60;95.00
41060;DHT22;26811;53.160;8.202;2023-05-20T16:17:47;18.50;95.90
41060;DHT22;26811;53.160;8.202;2023-05-20T16:22:47;18.60;96.30
41060;DHT22;26811;53.160;8.202;2023-05-20T16:27:48;18.60;95.60
41060;DHT22;26811;53.160;8.202;2023-05-20T16:32:48;18.60;95.70
41060;DHT22;26811;53.160;8.202;2023-05-20T16:37:50;18.60;96.10
41060;DHT22;26811;53.160;8.202;2023-05-20T16:42:51;18.50;96.00
41060;DHT22;26811;53.160;8.202;2023-05-20T16:47:52;18.40;96.40
41060;DHT22;26811;53.160;8.202;2023-05-20T16:52:52;18.40;96.70
41060;DHT22;26811;53.160;8.202;2023-05-20T16:57:53;18.30;97.20
41060;DHT22;26811;53.160;8.202;2023-05-20T17:02:54;18.20;96.80
41060;DHT22;26811;53.160;8.202;2023-05-20T17:07:54;18.00;97.20
41060;DHT22;26811;53.160;8.202;2023-05-20T17:12:59;17.90;97.80
41060;DHT22;26811;53.160;8.202;2023-05-20T17:18:02;17.80;98.00
41060;DHT22;26811;53.160;8.202;2023-05-20T17:23:03;17.70;98.40
41060;DHT22;26811;53.160;8.202;2023-05-20T17:28:04;17.60;99.00
41060;DHT22;26811;53.160;8.202;2023-05-20T17:33:04;17.60;99.10
41060;DHT22;26811;53.160;8.202;2023-05-20T17:38:05;17.60;99.90
41060;DHT22;26811;53.160;8.202;2023-05-20T17:43:05;17.50;99.30
41060;DHT22;26811;53.160;8.202;2023-05-20T17:48:06;17.40;99.40
41060;DHT22;26811;53.160;8.202;2023-05-20T17:53:07;17.20;99.90
41060;DHT22;26811;53.160;8.202;2023-05-20T17:58:07;17.20;99.90
41060;DHT22;26811;53.160;8.202;2023-05-20T18:03:08;17.10;99.90
41060;DHT22;26811;53.160;8.202;2023-05-20T18:08:09;17.00;99.90
41060;DHT22;26811;53.160;8.202;2023-05-20T18:13:10;16.90;99.90
41060;DHT22;26811;53.160;8.202;2023-05-20T18:18:10;16.90;99.90
41060;DHT22;26811;53.160;8.202;2023-05-20T18:23:11;16.90;99.90
41060;DHT22;26811;53.160;8.202;2023-05-20T18:28:12;16.70;99.90
41060;DHT22;26811;53.160;8.202;2023-05-20T18:33:12;16.60;99.90
41060;DHT22;26811;53.160;8.202;2023-05-20T18:38:13;16.60;99.90
41060;DHT22;26811;53.160;8.202;2023-05-20T18:43:13;16.50;99.90
41060;DHT22;26811;53.160;8.202;2023-05-20T18:48:14;16.50;99.90
41060;DHT22;26811;53.160;8.202;2023-05-20T18:53:15;16.50;99.90
41060;DHT22;26811;53.160;8.202;2023-05-20T18:58:17;16.50;99.90
41060;DHT22;26811;53.160;8.202;2023-05-20T19:03:18;16.50;99.90
41060;DHT22;26811;53.160;8.202;2023-05-20T19:08:19;16.60;99.90
41060;DHT22;26811;53.160;8.202;2023-05-20T19:13:19;16.60;99.90
41060;DHT22;26811;53.160;8.202;2023-05-20T19:18:20;16.60;99.90
41060;DHT22;26811;53.160;8.202;2023-05-20T19:23:21;16.50;99.90
41060;DHT22;26811;53.160;8.202;2023-05-20T19:28:22;16.50;99.90
41060;DHT22;26811;53.160;8.202;2023-05-20T19:33:22;16.50;99.90
41060;DHT22;26811;53.160;8.202;2023-05-20T19:38:25;16.50;99.90
41060;DHT22;26811;53.160;8.202;2023-05-20T19:43:26;16.40;99.90
41060;DHT22;26811;53.160;8.202;2023-05-20T19:48:26;16.30;99.90
41060;DHT22;26811;53.160;8.202;2023-05-20T19:53:27;16.40;99.90
41060;DHT22;26811;53.160;8.202;2023-05-20T19:58:27;16.40;99.90
41060;DHT22;26811;53.160;8.202;2023-05-20T20:03:28;16.30;99.90
41060;DHT22;26811;53.160;8.202;2023-05-20T20:08:29;16.40;99.90
41060;DHT22;26811;53.160;8.202;2023-05-20T20:13:29;16.40;99.90
41060;DHT22;26811;53.160;8.202;2023-05-20T20:18:33;16.30;99.90
41060;DHT22;26811;53.160;8.202;2023-05-20T20:23:33;16.30;99.90
41060;DHT22;26811;53.160;8.202;2023-05-20T20:28:36;16.20;99.90
41060;DHT22;26811;53.160;8.202;2023-05-20T20:33:38;16.20;99.90
41060;DHT22;26811;53.160;8.202;2023-05-20T20:38:49;16.10;99.90
41060;DHT22;26811;53.160;8.202;2023-05-20T20:43:50;16.00;99.90
41060;DHT22;26811;53.160;8.202;2023-05-20T20:48:51;16.00;99.90
41060;DHT22;26811;53.160;8.202;2023-05-20T20:53:54;15.90;99.90
41060;DHT22;26811;53.160;8.202;2023-05-20T20:58:55;15.90;99.90
41060;DHT22;26811;53.160;8.202;2023-05-20T21:03:56;15.80;99.90
41060;DHT22;26811;53.160;8.202;2023-05-20T21:08:57;15.80;99.90
41060;DHT22;26811;53.160;8.202;2023-05-20T21:14:01;15.80;99.90
41060;DHT22;26811;53.160;8.202;2023-05-20T21:19:01;15.80;99.90
41060;DHT22;26811;53.160;8.202;2023-05-20T21:24:02;15.70;99.90
41060;DHT22;26811;53.160;8.202;2023-05-20T21:29:03;15.70;99.90
41060;DHT22;26811;53.160;8.202;2023-05-20T21:34:03;15.70;99.90
41060;DHT22;26811;53.160;8.202;2023-05-20T21:39:04;15.60;99.90
41060;DHT22;26811;53.160;8.202;2023-05-20T21:44:05;15.50;99.90
41060;DHT22;26811;53.160;8.202;2023-05-20T21:49:05;15.50;99.90
41060;DHT22;26811;53.160;8.202;2023-05-20T21:54:06;15.40;99.90
41060;DHT22;26811;53.160;8.202;2023-05-20T21:59:07;15.40;99.90
41060;DHT22;26811;53.160;8.202;2023-05-20T22:04:07;15.40;99.90
41060;DHT22;26811;53.160;8.202;2023-05-20T22:09:08;15.40;99.90
41060;DHT22;26811;53.160;8.202;2023-05-20T22:14:09;15.40;99.90
41060;DHT22;26811;53.160;8.202;2023-05-20T22:19:14;15.30;99.90
41060;DHT22;26811;53.160;8.202;2023-05-20T22:24:15;15.30;99.90
41060;DHT22;26811;53.160;8.202;2023-05-20T22:29:15;15.30;99.90
41060;DHT22;26811;53.160;8.202;2023-05-20T22:34:16;15.30;99.90
41060;DHT22;26811;53.160;8.202;2023-05-20T22:39:17;15.30;99.90
41060;DHT22;26811;53.160;8.202;2023-05-20T22:44:17;15.30;99.90
41060;DHT22;26811;53.160;8.202;2023-05-20T22:49:17;15.30;99.90
41060;DHT22;26811;53.160;8.202;2023-05-20T22:54:18;15.30;99.90
41060;DHT22;26811;53.160;8.202;2023-05-20T22:59:19;15.20;99.90
41060;DHT22;26811;53.160;8.202;2023-05-20T23:04:20;15.20;99.90
41060;DHT22;26811;53.160;8.202;2023-05-20T23:09:21;15.10;99.90
41060;DHT22;26811;53.160;8.202;2023-05-20T23:14:22;14.90;99.90
41060;DHT22;26811;53.160;8.202;2023-05-20T23:19:22;14.80;99.90
41060;DHT22;26811;53.160;8.202;2023-05-20T23:24:23;14.70;99.90
41060;DHT22;26811;53.160;8.202;2023-05-20T23:29:23;14.60;99.90
41060;DHT22;26811;53.160;8.202;2023-05-20T23:34:24;14.50;99.90
41060;DHT22;26811;53.160;8.202;2023-05-20T23:39:26;14.50;99.90
41060;DHT22;26811;53.160;8.202;2023-05-20T23:44:27;14.40;99.90
41060;DHT22;26811;53.160;8.202;2023-05-20T23:49:27;14.30;99.90
41060;DHT22;26811;53.160;8.202;2023-05-20T23:54:28;14.20;99.90
41060;DHT22;26811;53.160;8.202;2023-05-20T23:59:33;14.20;99.90
